sensor_id;sensor_type;location;lat;lon;timestamp;P1;durP1;ratioP1;P2;durP2;ratioP2
16837;SDS011;19510;54.486;9.046;2022-12-05T00:03:37;11.80;;;6.43;;
16837;SDS011;19510;54.486;9.046;2022-12-05T00:06:05;11.10;;;6.27;;
16837;SDS011;19510;54.486;9.046;2022-12-05T00:08:33;15.50;;;9.43;;
16837;SDS011;19510;54.486;9.046;2022-12-05T00:10:59;15.07;;;8.50;;
16837;SDS011;19510;54.486;9.046;2022-12-05T00:13:25;9.70;;;5.97;;
16837;SDS011;19510;54.486;9.046;2022-12-05T00:15:51;9.03;;;5.43;;
16837;SDS011;19510;54.486;9.046;2022-12-05T00:18:16;10.87;;;5.53;;
16837;SDS011;19510;54.486;9.046;2022-12-05T00:20:45;10.33;;;6.20;;
16837;SDS011;19510;54.486;9.046;2022-12-05T00:23:12;9.30;;;5.60;;
16837;SDS011;19510;54.486;9.046;2022-12-05T00:25:38;9.43;;;5.70;;
16837;SDS011;19510;54.486;9.046;2022-12-05T00:28:04;9.70;;;6.03;;
16837;SDS011;19510;54.486;9.046;2022-12-05T00:30:29;10.20;;;5.60;;
16837;SDS011;19510;54.486;9.046;2022-12-05T00:32:56;9.47;;;6.13;;
16837;SDS011;19510;54.486;9.046;2022-12-05T00:35:22;8.47;;;5.00;;
16837;SDS011;19510;54.486;9.046;2022-12-05T00:37:48;12.40;;;6.47;;
16837;SDS011;19510;54.486;9.046;2022-12-05T00:40:14;9.50;;;5.73;;
16837;SDS011;19510;54.486;9.046;2022-12-05T00:42:40;10.03;;;5.63;;
16837;SDS011;19510;54.486;9.046;2022-12-05T00:45:05;11.30;;;6.47;;
16837;SDS011;19510;54.486;9.046;2022-12-05T07:22:44;13.40;;;5.53;;
16837;SDS011;19510;54.486;9.046;2022-12-05T07:25:10;13.07;;;6.17;;
16837;SDS011;19510;54.486;9.046;2022-12-05T07:31:02;16.47;;;5.80;;
16837;SDS011;19510;54.486;9.046;2022-12-05T07:33:30;12.03;;;6.37;;
16837;SDS011;19510;54.486;9.046;2022-12-05T07:42:42;11.50;;;5.87;;
16837;SDS011;19510;54.486;9.046;2022-12-05T07:45:10;11.97;;;5.53;;
16837;SDS011;19510;54.486;9.046;2022-12-05T07:47:36;12.57;;;5.37;;
16837;SDS011;19510;54.486;9.046;2022-12-05T07:50:02;11.20;;;5.17;;
16837;SDS011;19510;54.486;9.046;2022-12-05T07:52:28;12.73;;;5.40;;
16837;SDS011;19510;54.486;9.046;2022-12-05T07:54:53;13.10;;;6.50;;
16837;SDS011;19510;54.486;9.046;2022-12-05T07:57:19;11.13;;;7.50;;
16837;SDS011;19510;54.486;9.046;2022-12-05T07:59:45;11.50;;;5.13;;
16837;SDS011;19510;54.486;9.046;2022-12-05T08:02:10;11.77;;;5.17;;
16837;SDS011;19510;54.486;9.046;2022-12-05T08:04:36;10.30;;;4.67;;
16837;SDS011;19510;54.486;9.046;2022-12-05T08:07:02;9.17;;;5.13;;
16837;SDS011;19510;54.486;9.046;2022-12-05T08:09:27;12.30;;;5.00;;
16837;SDS011;19510;54.486;9.046;2022-12-05T08:11:53;8.50;;;4.50;;
16837;SDS011;19510;54.486;9.046;2022-12-05T08:14:19;10.77;;;5.07;;
16837;SDS011;19510;54.486;9.046;2022-12-05T08:16:45;9.10;;;4.83;;
16837;SDS011;19510;54.486;9.046;2022-12-05T08:19:11;6.93;;;4.33;;
16837;SDS011;19510;54.486;9.046;2022-12-05T08:21:37;9.27;;;4.07;;
16837;SDS011;19510;54.486;9.046;2022-12-05T08:24:04;8.60;;;4.13;;
16837;SDS011;19510;54.486;9.046;2022-12-05T08:26:31;16.90;;;8.47;;
16837;SDS011;19510;54.486;9.046;2022-12-05T08:29:02;7.27;;;4.10;;
16837;SDS011;19510;54.486;9.046;2022-12-05T08:31:29;4.87;;;3.57;;
16837;SDS011;19510;54.486;9.046;2022-12-05T08:33:57;8.83;;;3.77;;
16837;SDS011;19510;54.486;9.046;2022-12-05T08:36:23;8.37;;;4.50;;
16837;SDS011;19510;54.486;9.046;2022-12-05T08:38:54;6.87;;;4.07;;
16837;SDS011;19510;54.486;9.046;2022-12-05T08:41:24;14.97;;;3.83;;
16837;SDS011;19510;54.486;9.046;2022-12-05T08:44:00;17.43;;;9.67;;
16837;SDS011;19510;54.486;9.046;2022-12-05T08:46:29;7.43;;;3.87;;
16837;SDS011;19510;54.486;9.046;2022-12-05T08:48:56;6.70;;;3.93;;
16837;SDS011;19510;54.486;9.046;2022-12-05T08:51:21;7.97;;;3.43;;
16837;SDS011;19510;54.486;9.046;2022-12-05T08:53:47;6.33;;;3.50;;
16837;SDS011;19510;54.486;9.046;2022-12-05T08:56:13;5.80;;;3.70;;
16837;SDS011;19510;54.486;9.046;2022-12-05T08:58:39;8.90;;;4.00;;
16837;SDS011;19510;54.486;9.046;2022-12-05T09:01:12;7.47;;;4.83;;
16837;SDS011;19510;54.486;9.046;2022-12-05T09:03:43;7.70;;;3.80;;
16837;SDS011;19510;54.486;9.046;2022-12-05T09:06:11;6.17;;;3.17;;
16837;SDS011;19510;54.486;9.046;2022-12-05T09:08:39;6.73;;;3.60;;
16837;SDS011;19510;54.486;9.046;2022-12-05T09:11:07;8.07;;;4.10;;
16837;SDS011;19510;54.486;9.046;2022-12-05T09:13:36;6.27;;;3.77;;
16837;SDS011;19510;54.486;9.046;2022-12-05T09:16:21;8.33;;;3.70;;
16837;SDS011;19510;54.486;9.046;2022-12-05T09:18:56;7.13;;;3.70;;
16837;SDS011;19510;54.486;9.046;2022-12-05T09:21:23;5.93;;;3.27;;
16837;SDS011;19510;54.486;9.046;2022-12-05T09:23:50;7.13;;;3.40;;
16837;SDS011;19510;54.486;9.046;2022-12-05T09:26:19;9.27;;;3.83;;
16837;SDS011;19510;54.486;9.046;2022-12-05T09:28:47;10.13;;;3.53;;
16837;SDS011;19510;54.486;9.046;2022-12-05T09:31:14;6.40;;;3.60;;
16837;SDS011;19510;54.486;9.046;2022-12-05T09:33:41;5.43;;;3.47;;
16837;SDS011;19510;54.486;9.046;2022-12-05T09:36:10;5.87;;;3.33;;
16837;SDS011;19510;54.486;9.046;2022-12-05T09:38:37;5.60;;;3.10;;
16837;SDS011;19510;54.486;9.046;2022-12-05T09:50:39;9.37;;;4.33;;
16837;SDS011;19510;54.486;9.046;2022-12-05T09:52:43;7.87;;;3.80;;
16837;SDS011;19510;54.486;9.046;2022-12-05T09:59:11;7.63;;;4.13;;
16837;SDS011;19510;54.486;9.046;2022-12-05T10:04:16;4.60;;;2.97;;
16837;SDS011;19510;54.486;9.046;2022-12-05T10:12:46;6.10;;;3.80;;
16837;SDS011;19510;54.486;9.046;2022-12-05T10:15:25;7.03;;;3.70;;
16837;SDS011;19510;54.486;9.046;2022-12-05T10:20:46;8.03;;;4.13;;
16837;SDS011;19510;54.486;9.046;2022-12-05T10:23:17;7.90;;;3.80;;
16837;SDS011;19510;54.486;9.046;2022-12-05T10:26:11;7.53;;;3.60;;
16837;SDS011;19510;54.486;9.046;2022-12-05T10:28:42;4.87;;;3.70;;
16837;SDS011;19510;54.486;9.046;2022-12-05T10:31:29;10.20;;;4.80;;
16837;SDS011;19510;54.486;9.046;2022-12-05T10:34:08;10.13;;;4.20;;
16837;SDS011;19510;54.486;9.046;2022-12-05T10:37:03;10.30;;;4.20;;
16837;SDS011;19510;54.486;9.046;2022-12-05T10:39:35;9.63;;;4.03;;
16837;SDS011;19510;54.486;9.046;2022-12-05T10:42:01;7.60;;;4.90;;
16837;SDS011;19510;54.486;9.046;2022-12-05T10:44:29;9.60;;;4.37;;
16837;SDS011;19510;54.486;9.046;2022-12-05T10:46:57;7.50;;;4.50;;
16837;SDS011;19510;54.486;9.046;2022-12-05T10:49:23;6.70;;;4.43;;
16837;SDS011;19510;54.486;9.046;2022-12-05T10:51:49;9.27;;;4.17;;
16837;SDS011;19510;54.486;9.046;2022-12-05T10:54:16;9.00;;;4.23;;
16837;SDS011;19510;54.486;9.046;2022-12-05T10:56:47;9.47;;;4.17;;
16837;SDS011;19510;54.486;9.046;2022-12-05T10:59:16;6.77;;;3.93;;
16837;SDS011;19510;54.486;9.046;2022-12-05T11:01:48;6.07;;;4.03;;
16837;SDS011;19510;54.486;9.046;2022-12-05T11:04:19;7.63;;;4.33;;
16837;SDS011;19510;54.486;9.046;2022-12-05T11:06:54;6.57;;;3.80;;
16837;SDS011;19510;54.486;9.046;2022-12-05T11:09:21;7.77;;;3.93;;
16837;SDS011;19510;54.486;9.046;2022-12-05T11:14:33;9.27;;;4.30;;
16837;SDS011;19510;54.486;9.046;2022-12-05T11:17:01;7.33;;;3.90;;
16837;SDS011;19510;54.486;9.046;2022-12-05T11:22:02;8.43;;;3.93;;
16837;SDS011;19510;54.486;9.046;2022-12-05T11:24:36;6.67;;;3.90;;
16837;SDS011;19510;54.486;9.046;2022-12-05T11:29:43;7.17;;;4.40;;
16837;SDS011;19510;54.486;9.046;2022-12-05T11:32:22;5.87;;;3.77;;
16837;SDS011;19510;54.486;9.046;2022-12-05T11:34:51;7.33;;;3.90;;
16837;SDS011;19510;54.486;9.046;2022-12-05T11:40:14;5.27;;;3.70;;
16837;SDS011;19510;54.486;9.046;2022-12-05T12:07:31;7.17;;;4.10;;
16837;SDS011;19510;54.486;9.046;2022-12-05T12:12:49;7.97;;;4.07;;
16837;SDS011;19510;54.486;9.046;2022-12-05T12:15:26;6.33;;;3.67;;
16837;SDS011;19510;54.486;9.046;2022-12-05T12:18:01;6.70;;;3.30;;
16837;SDS011;19510;54.486;9.046;2022-12-05T12:26:24;8.00;;;4.30;;
16837;SDS011;19510;54.486;9.046;2022-12-05T12:50:46;6.03;;;3.63;;
16837;SDS011;19510;54.486;9.046;2022-12-05T13:03:59;5.63;;;3.10;;
16837;SDS011;19510;54.486;9.046;2022-12-05T13:06:34;7.23;;;3.63;;
16837;SDS011;19510;54.486;9.046;2022-12-05T13:09:09;7.83;;;3.50;;
16837;SDS011;19510;54.486;9.046;2022-12-05T13:11:47;5.77;;;3.60;;
16837;SDS011;19510;54.486;9.046;2022-12-05T13:14:16;4.70;;;3.13;;
16837;SDS011;19510;54.486;9.046;2022-12-05T13:16:49;7.57;;;3.83;;
16837;SDS011;19510;54.486;9.046;2022-12-05T13:22:03;6.07;;;3.53;;
16837;SDS011;19510;54.486;9.046;2022-12-05T13:24:30;6.50;;;3.10;;
16837;SDS011;19510;54.486;9.046;2022-12-05T13:26:57;5.27;;;3.77;;
16837;SDS011;19510;54.486;9.046;2022-12-05T13:29:32;6.30;;;3.57;;
16837;SDS011;19510;54.486;9.046;2022-12-05T13:32:02;7.77;;;3.80;;
16837;SDS011;19510;54.486;9.046;2022-12-05T13:34:36;7.40;;;3.77;;
16837;SDS011;19510;54.486;9.046;2022-12-05T13:37:22;9.17;;;4.03;;
16837;SDS011;19510;54.486;9.046;2022-12-05T13:40:48;7.00;;;3.67;;
16837;SDS011;19510;54.486;9.046;2022-12-05T13:43:33;6.33;;;3.53;;
16837;SDS011;19510;54.486;9.046;2022-12-05T13:46:08;5.77;;;3.43;;
16837;SDS011;19510;54.486;9.046;2022-12-05T13:48:43;6.87;;;3.63;;
16837;SDS011;19510;54.486;9.046;2022-12-05T13:53:45;6.93;;;4.07;;
16837;SDS011;19510;54.486;9.046;2022-12-05T13:58:49;7.07;;;3.90;;
16837;SDS011;19510;54.486;9.046;2022-12-05T14:09:00;6.43;;;3.47;;
16837;SDS011;19510;54.486;9.046;2022-12-05T14:11:26;13.33;;;6.50;;
16837;SDS011;19510;54.486;9.046;2022-12-05T14:13:52;10.33;;;4.03;;
16837;SDS011;19510;54.486;9.046;2022-12-05T14:27:16;9.83;;;4.50;;
16837;SDS011;19510;54.486;9.046;2022-12-05T14:32:43;7.57;;;3.70;;
16837;SDS011;19510;54.486;9.046;2022-12-05T14:35:11;8.13;;;3.90;;
16837;SDS011;19510;54.486;9.046;2022-12-05T14:37:49;8.80;;;4.30;;
16837;SDS011;19510;54.486;9.046;2022-12-05T14:43:03;8.70;;;4.10;;
16837;SDS011;19510;54.486;9.046;2022-12-05T14:46:02;8.70;;;4.37;;
16837;SDS011;19510;54.486;9.046;2022-12-05T14:48:39;6.67;;;3.60;;
16837;SDS011;19510;54.486;9.046;2022-12-05T14:54:06;9.87;;;4.13;;
16837;SDS011;19510;54.486;9.046;2022-12-05T14:56:49;8.70;;;4.20;;
16837;SDS011;19510;54.486;9.046;2022-12-05T15:01:45;7.90;;;4.00;;
16837;SDS011;19510;54.486;9.046;2022-12-05T15:04:29;10.87;;;4.30;;
16837;SDS011;19510;54.486;9.046;2022-12-05T15:07:11;11.43;;;4.40;;
16837;SDS011;19510;54.486;9.046;2022-12-05T15:12:19;7.50;;;4.33;;
16837;SDS011;19510;54.486;9.046;2022-12-05T15:14:55;7.67;;;4.23;;
16837;SDS011;19510;54.486;9.046;2022-12-05T15:17:29;12.43;;;6.40;;
16837;SDS011;19510;54.486;9.046;2022-12-05T15:20:09;8.13;;;4.17;;
16837;SDS011;19510;54.486;9.046;2022-12-05T15:22:45;8.83;;;3.97;;
16837;SDS011;19510;54.486;9.046;2022-12-05T15:25:14;9.83;;;3.83;;
16837;SDS011;19510;54.486;9.046;2022-12-05T15:28:00;6.67;;;3.73;;
16837;SDS011;19510;54.486;9.046;2022-12-05T15:30:29;8.07;;;4.30;;
16837;SDS011;19510;54.486;9.046;2022-12-05T15:32:56;9.33;;;3.87;;
16837;SDS011;19510;54.486;9.046;2022-12-05T15:35:23;11.60;;;4.77;;
16837;SDS011;19510;54.486;9.046;2022-12-05T15:38:01;7.73;;;3.47;;
16837;SDS011;19510;54.486;9.046;2022-12-05T15:40:37;7.97;;;3.90;;
16837;SDS011;19510;54.486;9.046;2022-12-05T15:43:42;7.93;;;3.60;;
16837;SDS011;19510;54.486;9.046;2022-12-05T15:46:17;7.77;;;3.80;;
16837;SDS011;19510;54.486;9.046;2022-12-05T15:48:46;12.27;;;6.40;;
16837;SDS011;19510;54.486;9.046;2022-12-05T15:51:17;5.63;;;3.80;;
16837;SDS011;19510;54.486;9.046;2022-12-05T15:56:48;5.87;;;3.27;;
16837;SDS011;19510;54.486;9.046;2022-12-05T15:59:17;7.70;;;3.90;;
16837;SDS011;19510;54.486;9.046;2022-12-05T16:01:51;7.53;;;4.03;;
16837;SDS011;19510;54.486;9.046;2022-12-05T16:04:38;10.53;;;4.23;;
16837;SDS011;19510;54.486;9.046;2022-12-05T16:07:13;7.33;;;4.00;;
16837;SDS011;19510;54.486;9.046;2022-12-05T16:09:40;7.27;;;3.70;;
16837;SDS011;19510;54.486;9.046;2022-12-05T16:14:39;6.13;;;3.40;;
16837;SDS011;19510;54.486;9.046;2022-12-05T16:17:08;8.17;;;3.90;;
16837;SDS011;19510;54.486;9.046;2022-12-05T16:19:38;7.57;;;3.40;;
16837;SDS011;19510;54.486;9.046;2022-12-05T16:22:08;4.83;;;3.60;;
16837;SDS011;19510;54.486;9.046;2022-12-05T16:24:58;5.27;;;3.40;;
16837;SDS011;19510;54.486;9.046;2022-12-05T16:30:20;7.23;;;3.43;;
16837;SDS011;19510;54.486;9.046;2022-12-05T16:32:47;10.43;;;4.30;;
16837;SDS011;19510;54.486;9.046;2022-12-05T16:48:32;7.70;;;4.30;;
16837;SDS011;19510;54.486;9.046;2022-12-05T16:53:46;7.70;;;4.30;;
16837;SDS011;19510;54.486;9.046;2022-12-05T16:56:21;6.23;;;4.13;;
16837;SDS011;19510;54.486;9.046;2022-12-05T16:58:46;7.83;;;4.13;;
16837;SDS011;19510;54.486;9.046;2022-12-05T17:01:16;12.10;;;4.60;;
16837;SDS011;19510;54.486;9.046;2022-12-05T17:03:47;7.57;;;4.00;;
16837;SDS011;19510;54.486;9.046;2022-12-05T17:06:13;7.03;;;4.30;;
16837;SDS011;19510;54.486;9.046;2022-12-05T17:08:40;7.43;;;4.13;;
16837;SDS011;19510;54.486;9.046;2022-12-05T17:11:08;8.37;;;4.33;;
16837;SDS011;19510;54.486;9.046;2022-12-05T17:13:48;7.63;;;4.30;;
16837;SDS011;19510;54.486;9.046;2022-12-05T17:16:15;9.00;;;3.87;;
16837;SDS011;19510;54.486;9.046;2022-12-05T17:18:42;8.00;;;4.57;;
16837;SDS011;19510;54.486;9.046;2022-12-05T17:21:10;6.73;;;4.27;;
16837;SDS011;19510;54.486;9.046;2022-12-05T17:23:40;8.80;;;3.83;;
16837;SDS011;19510;54.486;9.046;2022-12-05T17:26:07;8.67;;;3.70;;
16837;SDS011;19510;54.486;9.046;2022-12-05T17:28:37;10.73;;;5.60;;
16837;SDS011;19510;54.486;9.046;2022-12-05T17:31:04;8.70;;;5.10;;
16837;SDS011;19510;54.486;9.046;2022-12-05T17:33:30;5.63;;;3.60;;
16837;SDS011;19510;54.486;9.046;2022-12-05T17:35:58;5.13;;;3.10;;
16837;SDS011;19510;54.486;9.046;2022-12-05T17:38:24;5.73;;;3.20;;
16837;SDS011;19510;54.486;9.046;2022-12-05T17:40:51;5.63;;;3.30;;
16837;SDS011;19510;54.486;9.046;2022-12-05T17:43:17;4.60;;;2.87;;
16837;SDS011;19510;54.486;9.046;2022-12-05T17:45:43;4.70;;;2.90;;
16837;SDS011;19510;54.486;9.046;2022-12-05T17:48:12;3.60;;;2.50;;
16837;SDS011;19510;54.486;9.046;2022-12-05T17:50:41;3.47;;;2.43;;
16837;SDS011;19510;54.486;9.046;2022-12-05T17:53:13;5.53;;;3.03;;
16837;SDS011;19510;54.486;9.046;2022-12-05T17:55:40;4.07;;;2.70;;
16837;SDS011;19510;54.486;9.046;2022-12-05T17:58:06;4.57;;;2.60;;
16837;SDS011;19510;54.486;9.046;2022-12-05T18:00:33;5.20;;;2.87;;
16837;SDS011;19510;54.486;9.046;2022-12-05T18:02:58;3.40;;;2.50;;
16837;SDS011;19510;54.486;9.046;2022-12-05T18:05:24;6.23;;;2.70;;
16837;SDS011;19510;54.486;9.046;2022-12-05T18:07:52;2.80;;;2.20;;
16837;SDS011;19510;54.486;9.046;2022-12-05T18:10:19;5.03;;;1.90;;
16837;SDS011;19510;54.486;9.046;2022-12-05T18:12:47;2.83;;;2.10;;
16837;SDS011;19510;54.486;9.046;2022-12-05T18:15:14;4.30;;;2.30;;
16837;SDS011;19510;54.486;9.046;2022-12-05T18:17:42;5.10;;;2.60;;
16837;SDS011;19510;54.486;9.046;2022-12-05T18:20:11;4.27;;;2.77;;
16837;SDS011;19510;54.486;9.046;2022-12-05T18:22:38;2.87;;;2.17;;
16837;SDS011;19510;54.486;9.046;2022-12-05T18:25:07;2.77;;;1.90;;
16837;SDS011;19510;54.486;9.046;2022-12-05T18:27:38;3.60;;;2.40;;
16837;SDS011;19510;54.486;9.046;2022-12-05T18:30:04;1.60;;;1.50;;
16837;SDS011;19510;54.486;9.046;2022-12-05T18:32:31;5.67;;;1.60;;
16837;SDS011;19510;54.486;9.046;2022-12-05T18:34:57;2.10;;;1.37;;
16837;SDS011;19510;54.486;9.046;2022-12-05T18:37:26;2.47;;;1.53;;
16837;SDS011;19510;54.486;9.046;2022-12-05T18:39:54;7.60;;;2.80;;
16837;SDS011;19510;54.486;9.046;2022-12-05T18:42:20;3.33;;;2.23;;
16837;SDS011;19510;54.486;9.046;2022-12-05T18:44:47;1.90;;;1.57;;
16837;SDS011;19510;54.486;9.046;2022-12-05T18:47:14;4.13;;;1.83;;
16837;SDS011;19510;54.486;9.046;2022-12-05T18:49:40;3.20;;;2.03;;
16837;SDS011;19510;54.486;9.046;2022-12-05T18:52:06;2.73;;;1.60;;
16837;SDS011;19510;54.486;9.046;2022-12-05T18:54:32;3.37;;;1.90;;
16837;SDS011;19510;54.486;9.046;2022-12-05T18:56:57;3.33;;;1.90;;
16837;SDS011;19510;54.486;9.046;2022-12-05T18:59:23;2.70;;;2.00;;
16837;SDS011;19510;54.486;9.046;2022-12-05T19:01:49;3.40;;;1.90;;
16837;SDS011;19510;54.486;9.046;2022-12-05T19:04:16;2.27;;;1.83;;
16837;SDS011;19510;54.486;9.046;2022-12-05T19:06:51;2.47;;;2.13;;
16837;SDS011;19510;54.486;9.046;2022-12-05T19:09:27;3.30;;;2.20;;
16837;SDS011;19510;54.486;9.046;2022-12-05T19:11:55;2.40;;;2.10;;
16837;SDS011;19510;54.486;9.046;2022-12-05T19:14:23;3.00;;;1.93;;
16837;SDS011;19510;54.486;9.046;2022-12-05T19:16:51;3.47;;;2.17;;
16837;SDS011;19510;54.486;9.046;2022-12-05T19:19:19;3.47;;;1.97;;
16837;SDS011;19510;54.486;9.046;2022-12-05T19:21:47;2.30;;;2.10;;
16837;SDS011;19510;54.486;9.046;2022-12-05T19:24:14;2.57;;;2.30;;
16837;SDS011;19510;54.486;9.046;2022-12-05T19:26:42;5.87;;;2.10;;
16837;SDS011;19510;54.486;9.046;2022-12-05T19:29:14;2.77;;;1.87;;
16837;SDS011;19510;54.486;9.046;2022-12-05T19:31:41;2.93;;;2.03;;
16837;SDS011;19510;54.486;9.046;2022-12-05T19:34:09;2.07;;;1.57;;
16837;SDS011;19510;54.486;9.046;2022-12-05T19:36:43;2.47;;;2.07;;
16837;SDS011;19510;54.486;9.046;2022-12-05T19:39:12;2.63;;;1.90;;
16837;SDS011;19510;54.486;9.046;2022-12-05T19:41:42;3.33;;;1.90;;
16837;SDS011;19510;54.486;9.046;2022-12-05T19:44:12;2.30;;;1.60;;
16837;SDS011;19510;54.486;9.046;2022-12-05T19:46:38;2.83;;;1.87;;
16837;SDS011;19510;54.486;9.046;2022-12-05T19:49:05;4.13;;;2.13;;
16837;SDS011;19510;54.486;9.046;2022-12-05T19:51:32;5.13;;;2.73;;
16837;SDS011;19510;54.486;9.046;2022-12-05T19:53:59;4.07;;;2.13;;
16837;SDS011;19510;54.486;9.046;2022-12-05T19:56:29;3.27;;;2.10;;
16837;SDS011;19510;54.486;9.046;2022-12-05T19:58:58;3.53;;;2.23;;
16837;SDS011;19510;54.486;9.046;2022-12-05T20:01:26;5.03;;;2.50;;
16837;SDS011;19510;54.486;9.046;2022-12-05T20:03:55;2.60;;;2.00;;
16837;SDS011;19510;54.486;9.046;2022-12-05T20:06:24;2.80;;;2.10;;
16837;SDS011;19510;54.486;9.046;2022-12-05T20:08:54;2.40;;;1.90;;
16837;SDS011;19510;54.486;9.046;2022-12-05T20:11:23;3.23;;;2.30;;
16837;SDS011;19510;54.486;9.046;2022-12-05T20:13:50;3.90;;;2.20;;
16837;SDS011;19510;54.486;9.046;2022-12-05T20:16:18;3.00;;;2.03;;
16837;SDS011;19510;54.486;9.046;2022-12-05T20:18:48;2.40;;;2.10;;
16837;SDS011;19510;54.486;9.046;2022-12-05T20:21:15;2.87;;;2.23;;
16837;SDS011;19510;54.486;9.046;2022-12-05T20:23:43;3.30;;;2.20;;
16837;SDS011;19510;54.486;9.046;2022-12-05T20:26:14;3.70;;;2.50;;
16837;SDS011;19510;54.486;9.046;2022-12-05T20:28:41;3.13;;;2.47;;
16837;SDS011;19510;54.486;9.046;2022-12-05T20:33:40;3.67;;;2.37;;
16837;SDS011;19510;54.486;9.046;2022-12-05T20:36:07;3.37;;;2.63;;
16837;SDS011;19510;54.486;9.046;2022-12-05T20:38:35;3.17;;;2.40;;
16837;SDS011;19510;54.486;9.046;2022-12-05T20:41:02;3.03;;;1.87;;
16837;SDS011;19510;54.486;9.046;2022-12-05T20:43:30;4.27;;;2.47;;
16837;SDS011;19510;54.486;9.046;2022-12-05T20:46:01;2.60;;;1.90;;
16837;SDS011;19510;54.486;9.046;2022-12-05T20:48:34;2.57;;;2.00;;
16837;SDS011;19510;54.486;9.046;2022-12-05T20:51:10;4.10;;;2.40;;
16837;SDS011;19510;54.486;9.046;2022-12-05T20:53:39;9.53;;;6.03;;
16837;SDS011;19510;54.486;9.046;2022-12-05T20:56:09;2.80;;;2.10;;
16837;SDS011;19510;54.486;9.046;2022-12-05T20:58:40;3.67;;;2.37;;
16837;SDS011;19510;54.486;9.046;2022-12-05T21:01:09;2.57;;;2.20;;
16837;SDS011;19510;54.486;9.046;2022-12-05T21:03:39;3.03;;;2.27;;
16837;SDS011;19510;54.486;9.046;2022-12-05T21:06:09;2.90;;;2.10;;
16837;SDS011;19510;54.486;9.046;2022-12-05T21:08:39;3.00;;;2.27;;
16837;SDS011;19510;54.486;9.046;2022-12-05T21:11:06;3.27;;;2.37;;
16837;SDS011;19510;54.486;9.046;2022-12-05T21:13:32;2.43;;;2.00;;
16837;SDS011;19510;54.486;9.046;2022-12-05T21:16:04;3.67;;;2.67;;
16837;SDS011;19510;54.486;9.046;2022-12-05T21:18:37;2.70;;;2.40;;
16837;SDS011;19510;54.486;9.046;2022-12-05T21:21:05;3.40;;;2.47;;
16837;SDS011;19510;54.486;9.046;2022-12-05T21:23:33;3.50;;;2.33;;
16837;SDS011;19510;54.486;9.046;2022-12-05T21:26:00;4.00;;;1.97;;
16837;SDS011;19510;54.486;9.046;2022-12-05T21:28:28;3.03;;;2.20;;
16837;SDS011;19510;54.486;9.046;2022-12-05T21:31:02;2.93;;;2.20;;
16837;SDS011;19510;54.486;9.046;2022-12-05T21:33:55;2.77;;;2.10;;
16837;SDS011;19510;54.486;9.046;2022-12-05T21:36:25;4.43;;;2.23;;
16837;SDS011;19510;54.486;9.046;2022-12-05T21:38:52;2.97;;;1.97;;
16837;SDS011;19510;54.486;9.046;2022-12-05T21:41:18;2.47;;;2.10;;
16837;SDS011;19510;54.486;9.046;2022-12-05T21:43:44;3.47;;;2.40;;
16837;SDS011;19510;54.486;9.046;2022-12-05T21:46:09;3.97;;;2.03;;
16837;SDS011;19510;54.486;9.046;2022-12-05T21:48:35;2.10;;;1.83;;
16837;SDS011;19510;54.486;9.046;2022-12-05T21:51:04;2.77;;;2.20;;
16837;SDS011;19510;54.486;9.046;2022-12-05T21:53:31;4.67;;;2.80;;
16837;SDS011;19510;54.486;9.046;2022-12-05T21:56:01;4.37;;;2.63;;
16837;SDS011;19510;54.486;9.046;2022-12-05T21:58:30;2.57;;;2.07;;
16837;SDS011;19510;54.486;9.046;2022-12-05T22:00:59;2.90;;;2.03;;
16837;SDS011;19510;54.486;9.046;2022-12-05T22:03:25;3.77;;;2.37;;
16837;SDS011;19510;54.486;9.046;2022-12-05T22:05:58;3.87;;;2.90;;
16837;SDS011;19510;54.486;9.046;2022-12-05T22:08:30;4.23;;;2.60;;
16837;SDS011;19510;54.486;9.046;2022-12-05T22:11:04;2.97;;;2.37;;
16837;SDS011;19510;54.486;9.046;2022-12-05T22:13:34;3.97;;;2.17;;
16837;SDS011;19510;54.486;9.046;2022-12-05T22:16:00;3.27;;;2.20;;
16837;SDS011;19510;54.486;9.046;2022-12-05T22:18:26;3.57;;;2.63;;
16837;SDS011;19510;54.486;9.046;2022-12-05T22:20:56;5.33;;;2.40;;
16837;SDS011;19510;54.486;9.046;2022-12-05T22:23:23;3.07;;;2.37;;
16837;SDS011;19510;54.486;9.046;2022-12-05T22:25:59;3.67;;;2.40;;
16837;SDS011;19510;54.486;9.046;2022-12-05T22:28:27;3.97;;;2.37;;
16837;SDS011;19510;54.486;9.046;2022-12-05T22:30:54;2.33;;;2.10;;
16837;SDS011;19510;54.486;9.046;2022-12-05T22:33:21;3.17;;;2.10;;
16837;SDS011;19510;54.486;9.046;2022-12-05T22:35:54;3.93;;;2.67;;
16837;SDS011;19510;54.486;9.046;2022-12-05T22:38:22;5.27;;;2.60;;
16837;SDS011;19510;54.486;9.046;2022-12-05T22:40:53;2.80;;;2.30;;
16837;SDS011;19510;54.486;9.046;2022-12-05T22:43:23;3.17;;;2.53;;
16837;SDS011;19510;54.486;9.046;2022-12-05T22:45:50;4.90;;;2.90;;
16837;SDS011;19510;54.486;9.046;2022-12-05T22:48:18;5.50;;;2.63;;
16837;SDS011;19510;54.486;9.046;2022-12-05T22:50:47;3.23;;;2.40;;
16837;SDS011;19510;54.486;9.046;2022-12-05T22:53:17;5.17;;;2.63;;
16837;SDS011;19510;54.486;9.046;2022-12-05T22:55:47;11.07;;;6.40;;
16837;SDS011;19510;54.486;9.046;2022-12-05T22:58:13;4.53;;;3.20;;
16837;SDS011;19510;54.486;9.046;2022-12-05T23:00:39;2.60;;;2.07;;
16837;SDS011;19510;54.486;9.046;2022-12-05T23:03:07;2.67;;;2.47;;
16837;SDS011;19510;54.486;9.046;2022-12-05T23:05:37;2.97;;;2.23;;
16837;SDS011;19510;54.486;9.046;2022-12-05T23:08:04;3.57;;;2.17;;
16837;SDS011;19510;54.486;9.046;2022-12-05T23:10:30;3.33;;;2.37;;
